Marmarth, North Dakota
Current Conditions -  °F | °C
As of 2:51 AM on Sunday 23 Nov 2014 (Local Time) from KBHK Reporting Station
Clear Clear  
Wind Chill: 22°   Ceiling: Unl
Heat Index: 35°   Visibility: 10mi
Dew Point: 26°   Wind: 26mph
Humidity: 70%   Direction: 290°WNW
Pressure: 29.53"   Gusts: 37mph
Location:  46.3°N, 103.92°W
Report Text: KBHK 230951Z AUTO 29023G32KT 10SM CLR 02/M03 A2953 RMK AO2 PK WND 29032/0937 SLP012 T00171033
Loading
Personal Weather Stations






























Interactive Weather Map New forecast layout! Learn more

10-Day Weather Forecast

Advertisements
Track Severe Weather on mobile